sensor_id;sensor_type;location;lat;lon;timestamp;temperature;humidity
42803;DHT22;28447;48.682;9.022;2023-05-10T04:02:35;11.50;99.90
42803;DHT22;28447;48.682;9.022;2023-05-10T04:05:00;11.60;99.90
42803;DHT22;28447;48.682;9.022;2023-05-10T04:07:26;11.60;99.90
42803;DHT22;28447;48.682;9.022;2023-05-10T04:09:52;11.50;99.90
42803;DHT22;28447;48.682;9.022;2023-05-10T04:12:17;11.50;99.90
42803;DHT22;28447;48.682;9.022;2023-05-10T04:14:43;11.50;99.90
42803;DHT22;28447;48.682;9.022;2023-05-10T04:17:09;11.50;99.90
42803;DHT22;28447;48.682;9.022;2023-05-10T04:19:35;11.60;99.90
42803;DHT22;28447;48.682;9.022;2023-05-10T04:22:02;11.60;99.90
42803;DHT22;28447;48.682;9.022;2023-05-10T04:24:28;11.60;99.90
42803;DHT22;28447;48.682;9.022;2023-05-10T04:26:54;11.70;99.90
42803;DHT22;28447;48.682;9.022;2023-05-10T04:29:20;11.70;99.90
42803;DHT22;28447;48.682;9.022;2023-05-10T04:31:46;11.80;99.90
42803;DHT22;28447;48.682;9.022;2023-05-10T04:34:11;11.80;99.90
42803;DHT22;28447;48.682;9.022;2023-05-10T04:36:37;11.80;99.90
42803;DHT22;28447;48.682;9.022;2023-05-10T04:39:03;11.80;99.90
42803;DHT22;28447;48.682;9.022;2023-05-10T04:41:29;11.80;99.90
42803;DHT22;28447;48.682;9.022;2023-05-10T04:43:55;11.80;99.90
42803;DHT22;28447;48.682;9.022;2023-05-10T04:46:20;11.80;99.90
42803;DHT22;28447;48.682;9.022;2023-05-10T04:48:46;11.80;99.90
42803;DHT22;28447;48.682;9.022;2023-05-10T04:51:12;11.80;99.90
42803;DHT22;28447;48.682;9.022;2023-05-10T04:53:37;11.90;99.90
42803;DHT22;28447;48.682;9.022;2023-05-10T04:56:03;11.90;99.90
42803;DHT22;28447;48.682;9.022;2023-05-10T04:58:29;11.80;99.90
42803;DHT22;28447;48.682;9.022;2023-05-10T05:00:55;11.80;99.90
42803;DHT22;28447;48.682;9.022;2023-05-10T05:03:21;11.80;99.90
42803;DHT22;28447;48.682;9.022;2023-05-10T05:05:47;11.80;99.90
42803;DHT22;28447;48.682;9.022;2023-05-10T05:08:13;11.80;99.90
42803;DHT22;28447;48.682;9.022;2023-05-10T05:10:38;12.00;99.90
42803;DHT22;28447;48.682;9.022;2023-05-10T05:13:04;12.00;99.90
42803;DHT22;28447;48.682;9.022;2023-05-10T05:15:29;12.00;99.90
42803;DHT22;28447;48.682;9.022;2023-05-10T05:17:56;11.90;99.90
42803;DHT22;28447;48.682;9.022;2023-05-10T05:20:21;12.00;99.90
42803;DHT22;28447;48.682;9.022;2023-05-10T05:22:47;12.00;99.90
42803;DHT22;28447;48.682;9.022;2023-05-10T05:25:13;11.90;99.90
42803;DHT22;28447;48.682;9.022;2023-05-10T05:27:39;12.00;99.90
42803;DHT22;28447;48.682;9.022;2023-05-10T05:30:05;12.10;99.90
42803;DHT22;28447;48.682;9.022;2023-05-10T05:32:31;12.00;99.90
42803;DHT22;28447;48.682;9.022;2023-05-10T05:34:57;12.00;99.90
42803;DHT22;28447;48.682;9.022;2023-05-10T05:37:23;11.90;99.90
42803;DHT22;28447;48.682;9.022;2023-05-10T05:39:50;12.00;99.90
42803;DHT22;28447;48.682;9.022;2023-05-10T05:42:15;12.10;99.90
42803;DHT22;28447;48.682;9.022;2023-05-10T05:44:43;12.10;99.90
42803;DHT22;28447;48.682;9.022;2023-05-10T05:47:09;12.30;99.90
42803;DHT22;28447;48.682;9.022;2023-05-10T05:49:34;12.30;99.90
42803;DHT22;28447;48.682;9.022;2023-05-10T05:52:01;12.50;99.90
42803;DHT22;28447;48.682;9.022;2023-05-10T05:54:27;12.40;99.90
42803;DHT22;28447;48.682;9.022;2023-05-10T05:56:57;12.30;99.90
42803;DHT22;28447;48.682;9.022;2023-05-10T05:59:23;12.40;99.90
42803;DHT22;28447;48.682;9.022;2023-05-10T06:01:49;12.40;99.90
42803;DHT22;28447;48.682;9.022;2023-05-10T06:04:15;12.50;99.90
42803;DHT22;28447;48.682;9.022;2023-05-10T06:06:41;12.60;99.90
42803;DHT22;28447;48.682;9.022;2023-05-10T06:09:08;12.70;99.90
42803;DHT22;28447;48.682;9.022;2023-05-10T06:11:34;12.60;99.90
42803;DHT22;28447;48.682;9.022;2023-05-10T06:14:00;12.60;99.90
42803;DHT22;28447;48.682;9.022;2023-05-10T06:16:25;12.70;99.90
42803;DHT22;28447;48.682;9.022;2023-05-10T06:18:51;12.70;99.90
42803;DHT22;28447;48.682;9.022;2023-05-10T06:21:17;12.80;99.90
42803;DHT22;28447;48.682;9.022;2023-05-10T06:23:43;12.70;99.90
42803;DHT22;28447;48.682;9.022;2023-05-10T06:26:09;12.90;99.90
42803;DHT22;28447;48.682;9.022;2023-05-10T06:28:35;12.70;99.90
42803;DHT22;28447;48.682;9.022;2023-05-10T06:31:00;12.70;99.90
42803;DHT22;28447;48.682;9.022;2023-05-10T06:33:26;12.60;99.90
42803;DHT22;28447;48.682;9.022;2023-05-10T06:35:52;12.60;99.90
42803;DHT22;28447;48.682;9.022;2023-05-10T06:38:18;12.60;99.90
42803;DHT22;28447;48.682;9.022;2023-05-10T06:40:44;12.60;99.90
42803;DHT22;28447;48.682;9.022;2023-05-10T06:43:09;12.60;99.90
42803;DHT22;28447;48.682;9.022;2023-05-10T06:45:35;12.50;99.90
42803;DHT22;28447;48.682;9.022;2023-05-10T06:48:01;12.60;99.90
42803;DHT22;28447;48.682;9.022;2023-05-10T06:50:27;12.60;99.90
42803;DHT22;28447;48.682;9.022;2023-05-10T06:52:52;12.80;99.90
42803;DHT22;28447;48.682;9.022;2023-05-10T06:55:18;12.90;99.90
42803;DHT22;28447;48.682;9.022;2023-05-10T06:57:44;13.00;99.90
42803;DHT22;28447;48.682;9.022;2023-05-10T07:00:09;13.00;99.90
42803;DHT22;28447;48.682;9.022;2023-05-10T07:02:35;13.30;99.90
42803;DHT22;28447;48.682;9.022;2023-05-10T07:05:01;13.30;99.90
42803;DHT22;28447;48.682;9.022;2023-05-10T07:07:27;13.40;99.90
42803;DHT22;28447;48.682;9.022;2023-05-10T07:09:53;13.10;99.90
42803;DHT22;28447;48.682;9.022;2023-05-10T07:12:18;13.20;99.90
42803;DHT22;28447;48.682;9.022;2023-05-10T07:14:44;13.10;99.90
42803;DHT22;28447;48.682;9.022;2023-05-10T07:17:11;13.40;99.90
42803;DHT22;28447;48.682;9.022;2023-05-10T07:19:36;13.20;99.90
42803;DHT22;28447;48.682;9.022;2023-05-10T07:22:02;13.10;99.90
42803;DHT22;28447;48.682;9.022;2023-05-10T07:24:28;13.20;99.90
42803;DHT22;28447;48.682;9.022;2023-05-10T07:26:53;13.60;99.90
42803;DHT22;28447;48.682;9.022;2023-05-10T07:29:19;13.60;99.90
42803;DHT22;28447;48.682;9.022;2023-05-10T07:31:45;13.60;99.90
42803;DHT22;28447;48.682;9.022;2023-05-10T07:34:10;13.50;99.90
42803;DHT22;28447;48.682;9.022;2023-05-10T07:36:36;13.40;99.90
42803;DHT22;28447;48.682;9.022;2023-05-10T07:39:02;13.40;99.90
42803;DHT22;28447;48.682;9.022;2023-05-10T07:41:27;13.50;99.90
42803;DHT22;28447;48.682;9.022;2023-05-10T07:43:53;13.60;99.90
42803;DHT22;28447;48.682;9.022;2023-05-10T07:46:19;13.50;99.90
42803;DHT22;28447;48.682;9.022;2023-05-10T07:48:45;13.40;99.90
42803;DHT22;28447;48.682;9.022;2023-05-10T07:51:10;13.40;99.90
42803;DHT22;28447;48.682;9.022;2023-05-10T07:53:37;13.50;99.90
42803;DHT22;28447;48.682;9.022;2023-05-10T07:58:50;13.60;99.90
42803;DHT22;28447;48.682;9.022;2023-05-10T08:01:16;13.70;99.90
42803;DHT22;28447;48.682;9.022;2023-05-10T08:03:41;13.80;99.90
42803;DHT22;28447;48.682;9.022;2023-05-10T08:06:07;13.60;99.90
42803;DHT22;28447;48.682;9.022;2023-05-10T08:08:33;13.50;99.90
42803;DHT22;28447;48.682;9.022;2023-05-10T08:10:58;13.90;99.90
42803;DHT22;28447;48.682;9.022;2023-05-10T08:13:24;13.90;99.90
42803;DHT22;28447;48.682;9.022;2023-05-10T08:15:49;14.30;99.90
42803;DHT22;28447;48.682;9.022;2023-05-10T08:18:18;14.10;99.90
42803;DHT22;28447;48.682;9.022;2023-05-10T08:20:44;14.20;99.90
42803;DHT22;28447;48.682;9.022;2023-05-10T08:23:09;13.90;99.90
42803;DHT22;28447;48.682;9.022;2023-05-10T08:25:35;13.90;99.90
42803;DHT22;28447;48.682;9.022;2023-05-10T08:28:01;13.90;99.90
42803;DHT22;28447;48.682;9.022;2023-05-10T08:30:26;14.10;99.90
42803;DHT22;28447;48.682;9.022;2023-05-10T08:32:52;13.90;99.90
42803;DHT22;28447;48.682;9.022;2023-05-10T08:35:17;14.00;99.90
42803;DHT22;28447;48.682;9.022;2023-05-10T08:37:43;13.90;99.90
42803;DHT22;28447;48.682;9.022;2023-05-10T08:40:11;14.00;99.90
42803;DHT22;28447;48.682;9.022;2023-05-10T08:42:40;14.10;99.90
42803;DHT22;28447;48.682;9.022;2023-05-10T08:45:07;14.20;99.90
42803;DHT22;28447;48.682;9.022;2023-05-10T08:47:35;14.10;99.90
42803;DHT22;28447;48.682;9.022;2023-05-10T08:50:02;14.40;99.90
42803;DHT22;28447;48.682;9.022;2023-05-10T08:52:30;14.40;99.90
42803;DHT22;28447;48.682;9.022;2023-05-10T08:54:56;14.80;99.90
42803;DHT22;28447;48.682;9.022;2023-05-10T08:57:22;14.70;99.90
42803;DHT22;28447;48.682;9.022;2023-05-10T08:59:47;14.90;99.90
42803;DHT22;28447;48.682;9.022;2023-05-10T09:02:13;14.60;99.90
42803;DHT22;28447;48.682;9.022;2023-05-10T09:04:39;14.70;99.90
42803;DHT22;28447;48.682;9.022;2023-05-10T09:07:06;14.70;99.90
42803;DHT22;28447;48.682;9.022;2023-05-10T09:09:32;14.60;99.90
42803;DHT22;28447;48.682;9.022;2023-05-10T09:11:59;14.80;99.90
42803;DHT22;28447;48.682;9.022;2023-05-10T09:14:25;14.90;99.90
42803;DHT22;28447;48.682;9.022;2023-05-10T09:16:51;15.00;99.90
42803;DHT22;28447;48.682;9.022;2023-05-10T09:19:17;14.80;99.90
42803;DHT22;28447;48.682;9.022;2023-05-10T09:21:43;14.60;99.90
42803;DHT22;28447;48.682;9.022;2023-05-10T09:24:09;14.90;99.90
42803;DHT22;28447;48.682;9.022;2023-05-10T09:26:35;14.60;99.90
42803;DHT22;28447;48.682;9.022;2023-05-10T09:29:03;14.60;99.90
42803;DHT22;28447;48.682;9.022;2023-05-10T09:31:46;14.60;99.90
42803;DHT22;28447;48.682;9.022;2023-05-10T09:34:17;14.90;99.90
42803;DHT22;28447;48.682;9.022;2023-05-10T09:36:54;15.00;99.90
42803;DHT22;28447;48.682;9.022;2023-05-10T09:39:20;15.40;99.90
42803;DHT22;28447;48.682;9.022;2023-05-10T09:41:46;15.20;99.90
42803;DHT22;28447;48.682;9.022;2023-05-10T09:44:16;15.40;99.90
42803;DHT22;28447;48.682;9.022;2023-05-10T09:46:43;15.60;99.90
42803;DHT22;28447;48.682;9.022;2023-05-10T09:49:09;15.30;99.90
42803;DHT22;28447;48.682;9.022;2023-05-10T09:51:39;15.20;99.90
42803;DHT22;28447;48.682;9.022;2023-05-10T09:56:38;15.40;99.90
42803;DHT22;28447;48.682;9.022;2023-05-10T09:59:06;15.60;99.90
42803;DHT22;28447;48.682;9.022;2023-05-10T10:01:33;16.20;99.90
42803;DHT22;28447;48.682;9.022;2023-05-10T10:04:01;16.10;99.90
42803;DHT22;28447;48.682;9.022;2023-05-10T10:06:27;16.50;99.90
42803;DHT22;28447;48.682;9.022;2023-05-10T10:08:53;16.00;99.90
42803;DHT22;28447;48.682;9.022;2023-05-10T10:11:20;16.40;99.90
42803;DHT22;28447;48.682;9.022;2023-05-10T10:13:45;16.90;99.90
42803;DHT22;28447;48.682;9.022;2023-05-10T10:16:11;17.50;99.90
42803;DHT22;28447;48.682;9.022;2023-05-10T10:18:37;17.20;99.90
42803;DHT22;28447;48.682;9.022;2023-05-10T10:21:06;16.80;99.90
42803;DHT22;28447;48.682;9.022;2023-05-10T10:23:34;16.60;99.90
42803;DHT22;28447;48.682;9.022;2023-05-10T10:26:00;16.60;99.90
42803;DHT22;28447;48.682;9.022;2023-05-10T10:34:17;17.80;99.90
42803;DHT22;28447;48.682;9.022;2023-05-10T10:36:47;17.50;99.90
42803;DHT22;28447;48.682;9.022;2023-05-10T10:39:14;17.20;99.90
42803;DHT22;28447;48.682;9.022;2023-05-10T10:41:48;17.30;99.90
42803;DHT22;28447;48.682;9.022;2023-05-10T10:44:34;16.80;99.90
42803;DHT22;28447;48.682;9.022;2023-05-10T11:04:44;13.40;99.90
42803;DHT22;28447;48.682;9.022;2023-05-10T11:07:18;13.50;99.90
42803;DHT22;28447;48.682;9.022;2023-05-10T11:09:44;13.60;99.90
42803;DHT22;28447;48.682;9.022;2023-05-10T11:12:11;13.50;99.90
42803;DHT22;28447;48.682;9.022;2023-05-10T11:14:37;13.70;99.90
42803;DHT22;28447;48.682;9.022;2023-05-10T11:17:26;13.60;99.90
42803;DHT22;28447;48.682;9.022;2023-05-10T11:20:11;13.70;99.90
42803;DHT22;28447;48.682;9.022;2023-05-10T11:22:54;13.70;99.90
42803;DHT22;28447;48.682;9.022;2023-05-10T11:25:25;14.10;99.90
42803;DHT22;28447;48.682;9.022;2023-05-10T11:27:51;14.40;99.90
42803;DHT22;28447;48.682;9.022;2023-05-10T11:30:17;14.40;99.90
42803;DHT22;28447;48.682;9.022;2023-05-10T11:32:43;14.50;99.90
42803;DHT22;28447;48.682;9.022;2023-05-10T11:35:10;14.40;99.90
42803;DHT22;28447;48.682;9.022;2023-05-10T11:37:38;14.20;99.90
42803;DHT22;28447;48.682;9.022;2023-05-10T11:40:08;15.00;99.90
42803;DHT22;28447;48.682;9.022;2023-05-10T11:42:39;14.80;99.90
42803;DHT22;28447;48.682;9.022;2023-05-10T11:45:05;15.40;99.90
42803;DHT22;28447;48.682;9.022;2023-05-10T11:47:31;15.20;99.90
42803;DHT22;28447;48.682;9.022;2023-05-10T11:49:57;15.60;99.90
42803;DHT22;28447;48.682;9.022;2023-05-10T11:52:23;16.10;99.90
42803;DHT22;28447;48.682;9.022;2023-05-10T11:54:53;15.60;99.90
42803;DHT22;28447;48.682;9.022;2023-05-10T11:57:25;15.60;99.90
42803;DHT22;28447;48.682;9.022;2023-05-10T11:59:54;15.70;99.90
42803;DHT22;28447;48.682;9.022;2023-05-10T12:02:23;15.50;99.90
42803;DHT22;28447;48.682;9.022;2023-05-10T12:04:50;16.60;99.90
42803;DHT22;28447;48.682;9.022;2023-05-10T12:07:16;16.70;99.90
42803;DHT22;28447;48.682;9.022;2023-05-10T12:10:09;16.70;99.90
42803;DHT22;28447;48.682;9.022;2023-05-10T12:12:42;16.30;99.90
42803;DHT22;28447;48.682;9.022;2023-05-10T12:15:17;15.80;99.90
42803;DHT22;28447;48.682;9.022;2023-05-10T12:17:44;15.30;99.90
42803;DHT22;28447;48.682;9.022;2023-05-10T12:35:25;14.90;99.90
42803;DHT22;28447;48.682;9.022;2023-05-10T12:37:51;15.10;99.90
42803;DHT22;28447;48.682;9.022;2023-05-10T12:40:17;15.30;99.90
42803;DHT22;28447;48.682;9.022;2023-05-10T12:42:43;15.00;99.90
42803;DHT22;28447;48.682;9.022;2023-05-10T12:45:12;15.20;99.90
42803;DHT22;28447;48.682;9.022;2023-05-10T12:47:38;15.30;99.90
42803;DHT22;28447;48.682;9.022;2023-05-10T12:50:04;15.10;99.90
42803;DHT22;28447;48.682;9.022;2023-05-10T12:52:34;15.90;99.90
42803;DHT22;28447;48.682;9.022;2023-05-10T12:55:00;15.90;99.90
42803;DHT22;28447;48.682;9.022;2023-05-10T12:57:26;15.70;99.90
42803;DHT22;28447;48.682;9.022;2023-05-10T12:59:52;15.60;99.90
42803;DHT22;28447;48.682;9.022;2023-05-10T13:02:17;15.90;99.90
42803;DHT22;28447;48.682;9.022;2023-05-10T13:04:44;15.70;99.90
42803;DHT22;28447;48.682;9.022;2023-05-10T13:07:11;15.70;99.90
42803;DHT22;28447;48.682;9.022;2023-05-10T13:09:37;15.60;99.90
42803;DHT22;28447;48.682;9.022;2023-05-10T13:12:03;15.70;99.90
42803;DHT22;28447;48.682;9.022;2023-05-10T13:14:29;15.60;99.90
42803;DHT22;28447;48.682;9.022;2023-05-10T13:16:55;16.00;99.90
42803;DHT22;28447;48.682;9.022;2023-05-10T13:19:20;15.50;99.90
42803;DHT22;28447;48.682;9.022;2023-05-10T13:21:46;15.80;99.90
42803;DHT22;28447;48.682;9.022;2023-05-10T13:24:12;15.90;99.90
42803;DHT22;28447;48.682;9.022;2023-05-10T13:26:42;15.90;99.90
42803;DHT22;28447;48.682;9.022;2023-05-10T13:29:09;15.30;99.90
42803;DHT22;28447;48.682;9.022;2023-05-10T13:31:35;15.50;99.90
42803;DHT22;28447;48.682;9.022;2023-05-10T13:34:01;15.40;99.90
42803;DHT22;28447;48.682;9.022;2023-05-10T13:36:28;15.90;99.90
42803;DHT22;28447;48.682;9.022;2023-05-10T13:38:53;15.50;99.90
42803;DHT22;28447;48.682;9.022;2023-05-10T13:41:19;16.00;99.90
42803;DHT22;28447;48.682;9.022;2023-05-10T13:43:45;16.40;99.90
42803;DHT22;28447;48.682;9.022;2023-05-10T13:46:10;16.20;99.90
42803;DHT22;28447;48.682;9.022;2023-05-10T13:48:36;16.60;99.90
42803;DHT22;28447;48.682;9.022;2023-05-10T13:51:05;16.60;99.90
42803;DHT22;28447;48.682;9.022;2023-05-10T13:53:30;16.60;99.90
42803;DHT22;28447;48.682;9.022;2023-05-10T13:55:56;16.80;99.90
42803;DHT22;28447;48.682;9.022;2023-05-10T13:58:22;15.70;99.90
42803;DHT22;28447;48.682;9.022;2023-05-10T14:00:49;16.00;99.90
42803;DHT22;28447;48.682;9.022;2023-05-10T14:03:14;16.00;99.90
42803;DHT22;28447;48.682;9.022;2023-05-10T14:05:40;15.60;99.90
42803;DHT22;28447;48.682;9.022;2023-05-10T14:08:05;16.10;99.90
42803;DHT22;28447;48.682;9.022;2023-05-10T14:10:31;16.00;99.90
42803;DHT22;28447;48.682;9.022;2023-05-10T14:12:57;15.80;99.90
42803;DHT22;28447;48.682;9.022;2023-05-10T14:15:22;16.10;99.90
42803;DHT22;28447;48.682;9.022;2023-05-10T14:17:48;16.70;99.90
42803;DHT22;28447;48.682;9.022;2023-05-10T14:20:14;16.70;99.90
42803;DHT22;28447;48.682;9.022;2023-05-10T14:22:39;16.70;99.90
42803;DHT22;28447;48.682;9.022;2023-05-10T14:25:06;16.70;99.90
42803;DHT22;28447;48.682;9.022;2023-05-10T14:27:32;16.30;99.90
42803;DHT22;28447;48.682;9.022;2023-05-10T14:29:57;16.50;99.90
42803;DHT22;28447;48.682;9.022;2023-05-10T14:32:23;16.20;99.90
42803;DHT22;28447;48.682;9.022;2023-05-10T14:34:49;16.10;99.90
42803;DHT22;28447;48.682;9.022;2023-05-10T14:37:15;16.20;99.90
42803;DHT22;28447;48.682;9.022;2023-05-10T14:39:40;16.50;99.90
42803;DHT22;28447;48.682;9.022;2023-05-10T14:42:08;16.80;99.90
42803;DHT22;28447;48.682;9.022;2023-05-10T14:44:34;16.20;99.90
42803;DHT22;28447;48.682;9.022;2023-05-10T14:47:00;16.80;99.90
42803;DHT22;28447;48.682;9.022;2023-05-10T14:49:25;16.60;99.90
42803;DHT22;28447;48.682;9.022;2023-05-10T14:51:51;16.70;99.90
42803;DHT22;28447;48.682;9.022;2023-05-10T14:54:17;16.40;99.90
42803;DHT22;28447;48.682;9.022;2023-05-10T14:56:43;16.50;99.90
42803;DHT22;28447;48.682;9.022;2023-05-10T14:59:09;16.20;99.90
42803;DHT22;28447;48.682;9.022;2023-05-10T15:01:34;16.30;99.90
42803;DHT22;28447;48.682;9.022;2023-05-10T15:04:03;16.30;99.90
42803;DHT22;28447;48.682;9.022;2023-05-10T15:06:33;16.30;99.90
42803;DHT22;28447;48.682;9.022;2023-05-10T15:08:59;17.00;99.90
42803;DHT22;28447;48.682;9.022;2023-05-10T15:11:25;16.60;99.90
42803;DHT22;28447;48.682;9.022;2023-05-10T15:13:51;16.20;99.90
42803;DHT22;28447;48.682;9.022;2023-05-10T15:16:16;15.90;99.90
42803;DHT22;28447;48.682;9.022;2023-05-10T15:18:42;16.50;99.90
42803;DHT22;28447;48.682;9.022;2023-05-10T15:21:08;16.70;99.90
42803;DHT22;28447;48.682;9.022;2023-05-10T15:23:34;16.00;99.90
42803;DHT22;28447;48.682;9.022;2023-05-10T15:26:00;15.90;99.90
42803;DHT22;28447;48.682;9.022;2023-05-10T15:28:26;16.10;99.90
42803;DHT22;28447;48.682;9.022;2023-05-10T15:30:51;16.30;99.90
42803;DHT22;28447;48.682;9.022;2023-05-10T15:33:17;16.50;99.90
42803;DHT22;28447;48.682;9.022;2023-05-10T15:35:43;17.10;99.90
42803;DHT22;28447;48.682;9.022;2023-05-10T15:38:09;16.80;99.90
42803;DHT22;28447;48.682;9.022;2023-05-10T15:40:35;17.00;99.90
42803;DHT22;28447;48.682;9.022;2023-05-10T15:43:00;16.40;99.90
42803;DHT22;28447;48.682;9.022;2023-05-10T15:45:26;16.50;99.90
42803;DHT22;28447;48.682;9.022;2023-05-10T15:47:52;16.50;99.90
42803;DHT22;28447;48.682;9.022;2023-05-10T15:50:18;16.20;99.90
42803;DHT22;28447;48.682;9.022;2023-05-10T15:52:43;16.40;99.90
42803;DHT22;28447;48.682;9.022;2023-05-10T15:55:09;16.40;99.90
42803;DHT22;28447;48.682;9.022;2023-05-10T15:57:39;16.20;99.90
42803;DHT22;28447;48.682;9.022;2023-05-10T16:00:06;15.90;99.90
42803;DHT22;28447;48.682;9.022;2023-05-10T16:02:32;15.60;99.90
42803;DHT22;28447;48.682;9.022;2023-05-10T16:04:58;15.70;99.90
42803;DHT22;28447;48.682;9.022;2023-05-10T16:07:23;15.90;99.90
42803;DHT22;28447;48.682;9.022;2023-05-10T16:09:49;16.00;99.90
42803;DHT22;28447;48.682;9.022;2023-05-10T16:12:15;15.80;99.90
42803;DHT22;28447;48.682;9.022;2023-05-10T16:14:40;15.90;99.90
42803;DHT22;28447;48.682;9.022;2023-05-10T16:17:06;15.90;99.90
42803;DHT22;28447;48.682;9.022;2023-05-10T16:19:32;15.80;99.90
42803;DHT22;28447;48.682;9.022;2023-05-10T16:21:59;15.80;99.90
42803;DHT22;28447;48.682;9.022;2023-05-10T16:24:25;16.20;99.90
42803;DHT22;28447;48.682;9.022;2023-05-10T16:26:51;16.20;99.90
42803;DHT22;28447;48.682;9.022;2023-05-10T16:29:16;15.90;99.90
42803;DHT22;28447;48.682;9.022;2023-05-10T16:31:42;15.50;99.90
42803;DHT22;28447;48.682;9.022;2023-05-10T16:34:08;15.70;99.90
42803;DHT22;28447;48.682;9.022;2023-05-10T16:36:33;15.70;99.90
42803;DHT22;28447;48.682;9.022;2023-05-10T16:38:59;15.50;99.90
42803;DHT22;28447;48.682;9.022;2023-05-10T16:41:25;15.50;99.90
42803;DHT22;28447;48.682;9.022;2023-05-10T16:43:51;15.40;99.90
42803;DHT22;28447;48.682;9.022;2023-05-10T16:46:16;15.00;99.90
42803;DHT22;28447;48.682;9.022;2023-05-10T16:48:42;14.80;99.90
42803;DHT22;28447;48.682;9.022;2023-05-10T16:51:08;14.50;99.90
42803;DHT22;28447;48.682;9.022;2023-05-10T16:53:34;14.50;99.90
42803;DHT22;28447;48.682;9.022;2023-05-10T16:56:00;14.20;99.90
42803;DHT22;28447;48.682;9.022;2023-05-10T16:58:26;14.20;99.90
42803;DHT22;28447;48.682;9.022;2023-05-10T17:00:52;14.30;99.90
42803;DHT22;28447;48.682;9.022;2023-05-10T17:03:17;14.30;99.90
42803;DHT22;28447;48.682;9.022;2023-05-10T17:05:43;14.00;99.90
42803;DHT22;28447;48.682;9.022;2023-05-10T17:08:08;14.00;99.90
42803;DHT22;28447;48.682;9.022;2023-05-10T17:10:35;13.90;99.90
42803;DHT22;28447;48.682;9.022;2023-05-10T17:13:00;13.90;99.90
42803;DHT22;28447;48.682;9.022;2023-05-10T17:15:27;13.90;99.90
42803;DHT22;28447;48.682;9.022;2023-05-10T17:17:53;13.90;99.90
42803;DHT22;28447;48.682;9.022;2023-05-10T17:20:19;13.90;99.90
42803;DHT22;28447;48.682;9.022;2023-05-10T17:22:45;13.90;99.90
42803;DHT22;28447;48.682;9.022;2023-05-10T17:25:10;13.80;99.90
42803;DHT22;28447;48.682;9.022;2023-05-10T17:27:36;13.80;99.90
42803;DHT22;28447;48.682;9.022;2023-05-10T17:30:02;13.70;99.90
42803;DHT22;28447;48.682;9.022;2023-05-10T17:32:27;13.80;99.90
42803;DHT22;28447;48.682;9.022;2023-05-10T17:34:53;13.70;99.90
42803;DHT22;28447;48.682;9.022;2023-05-10T17:37:19;13.40;99.90
